Time;durP1;ratioP1;P1;durP2;ratioP2;P2;SDS_P1;SDS_P2;PMS_P1;PMS_P2;Temp;Humidity;BMP_temperature;BMP_pressure;BME280_temperature;BME280_humidity;BME280_pressure;Samples;Min_cycle;Max_cycle;Signal;HPM_P1;HPM_P2
2022/06/24 00:01:14;;;;;;;18.10;13.07;;;;;;;;;;5065316;28;20032;-68
2022/06/24 00:03:39;;;;;;;18.52;13.43;;;;;;;;;;5062965;28;20012;-68
2022/06/24 00:06:11;;;;;;;18.97;13.83;;;;;;;;;;5063789;28;20051;-68
2022/06/24 00:08:45;;;;;;;20.67;14.50;;;;;;;;;;5060591;28;20128;-68
2022/06/24 00:11:11;;;;;;;24.85;13.45;;;;;;;;;;5062386;28;20031;-68
2022/06/24 00:13:39;;;;;;;18.67;13.05;;;;;;;;;;5075043;28;20410;-68
2022/06/24 00:16:04;;;;;;;21.50;14.60;;;;;;;;;;5067001;28;20024;-68
2022/06/24 00:18:29;;;;;;;23.73;14.38;;;;;;;;;;5067436;28;20035;-68
2022/06/24 00:20:55;;;;;;;21.27;13.35;;;;;;;;;;5059889;28;20112;-68
2022/06/24 00:23:21;;;;;;;19.25;13.05;;;;;;;;;;5079836;28;20069;-68
2022/06/24 00:25:46;;;;;;;21.45;14.73;;;;;;;;;;5058979;28;20033;-68
2022/06/24 00:28:12;;;;;;;22.77;14.23;;;;;;;;;;5056912;28;20444;-68
2022/06/24 00:30:37;;;;;;;20.42;14.38;;;;;;;;;;5053217;28;20067;-68
2022/06/24 00:33:13;;;;;;;22.92;16.95;;;;;;;;;;5068652;28;20365;-70
2022/06/24 00:35:39;;;;;;;27.38;21.00;;;;;;;;;;5061337;28;20020;-74
2022/06/24 00:38:19;;;;;;;26.17;20.55;;;;;;;;;;5056916;28;20021;-72
2022/06/24 00:40:47;;;;;;;25.00;18.65;;;;;;;;;;5065986;28;20652;-73
2022/06/24 00:43:18;;;;;;;20.35;14.15;;;;;;;;;;5065419;28;20059;-73
2022/06/24 00:45:45;;;;;;;23.90;17.35;;;;;;;;;;5065121;28;20036;-76
2022/06/24 00:48:13;;;;;;;27.88;15.85;;;;;;;;;;5058645;28;20466;-73
2022/06/24 00:50:40;;;;;;;29.75;15.38;;;;;;;;;;5062353;28;20039;-73
2022/06/24 00:53:05;;;;;;;28.33;15.15;;;;;;;;;;5059376;28;20435;-76
2022/06/24 00:55:32;;;;;;;22.55;13.93;;;;;;;;;;5056318;28;20024;-76
2022/06/24 00:57:58;;;;;;;22.50;13.80;;;;;;;;;;5061542;28;20028;-73
2022/06/24 01:00:24;;;;;;;22.98;12.80;;;;;;;;;;5063734;28;20020;-75
2022/06/24 01:02:55;;;;;;;26.27;12.93;;;;;;;;;;5065722;28;20386;-76
2022/06/24 01:05:20;;;;;;;29.77;15.13;;;;;;;;;;5064544;28;20059;-77
2022/06/24 01:07:45;;;;;;;31.17;17.90;;;;;;;;;;5060237;28;20441;-74
2022/06/24 01:10:10;;;;;;;29.92;17.58;;;;;;;;;;5060802;28;20376;-78
2022/06/24 01:12:36;;;;;;;27.17;17.25;;;;;;;;;;5067846;28;20028;-76
2022/06/24 01:15:02;;;;;;;33.95;18.48;;;;;;;;;;5060235;28;20361;-77
2022/06/24 01:17:27;;;;;;;26.42;16.77;;;;;;;;;;5063101;28;20063;-79
2022/06/24 01:19:53;;;;;;;29.83;19.73;;;;;;;;;;5064309;28;20107;-79
2022/06/24 01:22:22;;;;;;;26.43;17.30;;;;;;;;;;5061886;28;20032;-78
2022/06/24 01:24:47;;;;;;;21.90;14.20;;;;;;;;;;5069948;28;20127;-77
2022/06/24 01:27:12;;;;;;;22.17;13.27;;;;;;;;;;5067202;28;20034;-79
2022/06/24 01:29:37;;;;;;;20.63;13.50;;;;;;;;;;5058587;28;20510;-79
2022/06/24 01:32:03;;;;;;;21.43;13.50;;;;;;;;;;5063158;28;20066;-79
2022/06/24 01:34:28;;;;;;;20.13;12.48;;;;;;;;;;5068049;28;20065;-79
2022/06/24 01:36:53;;;;;;;17.80;12.20;;;;;;;;;;5066723;28;20012;-79
2022/06/24 01:39:19;;;;;;;16.33;11.27;;;;;;;;;;5060408;28;20031;-75
2022/06/24 01:41:44;;;;;;;16.48;10.82;;;;;;;;;;5070357;28;20098;-77
2022/06/24 01:44:10;;;;;;;9.70;7.22;;;;;;;;;;5071796;28;20478;-75
2022/06/24 01:46:35;;;;;;;10.30;7.35;;;;;;;;;;5066877;28;20120;-77
2022/06/24 01:49:00;;;;;;;9.63;6.10;;;;;;;;;;5064842;28;20044;-75
2022/06/24 01:51:27;;;;;;;7.68;5.13;;;;;;;;;;5069654;28;20060;-78
2022/06/24 01:53:53;;;;;;;6.63;5.00;;;;;;;;;;5064307;28;20048;-77
2022/06/24 01:56:18;;;;;;;5.97;4.35;;;;;;;;;;5066239;28;20055;-75
2022/06/24 01:58:43;;;;;;;3.03;2.60;;;;;;;;;;5070120;28;20032;-79
2022/06/24 02:01:08;;;;;;;4.47;1.85;;;;;;;;;;5072141;28;20317;-77
2022/06/24 02:03:34;;;;;;;5.03;1.90;;;;;;;;;;5068130;28;20024;-77
2022/06/24 02:06:04;;;;;;;2.08;1.88;;;;;;;;;;5068293;28;20020;-77
2022/06/24 02:08:29;;;;;;;3.15;1.67;;;;;;;;;;5065562;28;20062;-76
2022/06/24 02:13:38;;;;;;;1.98;1.77;;;;;;;;;;5069216;28;20765;-75
2022/06/24 02:16:04;;;;;;;3.72;1.55;;;;;;;;;;5063100;28;20033;-76
2022/06/24 02:18:29;;;;;;;1.90;1.70;;;;;;;;;;5063927;28;20037;-76
2022/06/24 02:20:55;;;;;;;4.10;2.38;;;;;;;;;;5068583;28;20021;-75
2022/06/24 02:23:20;;;;;;;5.60;1.90;;;;;;;;;;5064290;28;20029;-75
2022/06/24 02:25:46;;;;;;;3.03;2.30;;;;;;;;;;5061574;28;20502;-74
2022/06/24 02:28:12;;;;;;;3.42;1.77;;;;;;;;;;5065920;28;20032;-75
2022/06/24 02:30:38;;;;;;;2.33;1.95;;;;;;;;;;5063923;28;20024;-75
2022/06/24 02:33:03;;;;;;;5.38;2.38;;;;;;;;;;5065490;28;20025;-74
2022/06/24 02:35:28;;;;;;;3.40;2.70;;;;;;;;;;5063088;28;20494;-75
2022/06/24 02:37:53;;;;;;;5.00;3.20;;;;;;;;;;5061899;28;20024;-76
2022/06/24 02:43:10;;;;;;;4.00;2.90;;;;;;;;;;5066069;28;20040;-75
2022/06/24 02:45:35;;;;;;;3.88;2.20;;;;;;;;;;5070017;28;20052;-77
2022/06/24 02:48:00;;;;;;;3.00;2.40;;;;;;;;;;5065837;28;20127;-76
2022/06/24 02:50:25;;;;;;;4.47;2.37;;;;;;;;;;5062388;28;20522;-78
2022/06/24 02:52:50;;;;;;;3.70;2.50;;;;;;;;;;5063629;28;20031;-77
2022/06/24 02:55:16;;;;;;;5.10;2.63;;;;;;;;;;5066734;28;20268;-79
2022/06/24 02:57:41;;;;;;;4.80;2.47;;;;;;;;;;5066776;28;20285;-79
2022/06/24 03:00:06;;;;;;;5.80;3.00;;;;;;;;;;5059943;28;20869;-79
2022/06/24 03:02:31;;;;;;;3.17;2.53;;;;;;;;;;5064001;28;20029;-78
2022/06/24 03:04:57;;;;;;;3.20;2.90;;;;;;;;;;5068785;28;20004;-79
2022/06/24 03:07:22;;;;;;;2.80;2.42;;;;;;;;;;5061424;28;20423;-78
2022/06/24 03:09:47;;;;;;;4.07;3.00;;;;;;;;;;5061012;28;20025;-78
2022/06/24 03:12:12;;;;;;;7.13;2.80;;;;;;;;;;5060658;28;20021;-80
2022/06/24 03:14:37;;;;;;;3.20;2.73;;;;;;;;;;5068202;28;20030;-77
2022/06/24 03:17:02;;;;;;;4.47;2.30;;;;;;;;;;5066911;28;20020;-78
2022/06/24 03:19:28;;;;;;;3.08;2.45;;;;;;;;;;5063647;28;20811;-79
2022/06/24 03:21:53;;;;;;;2.67;2.17;;;;;;;;;;5065593;28;20020;-77
2022/06/24 03:24:18;;;;;;;2.15;1.95;;;;;;;;;;5063162;28;20032;-75
2022/06/24 03:26:43;;;;;;;4.05;1.95;;;;;;;;;;5064248;28;21065;-78
2022/06/24 03:29:09;;;;;;;2.27;1.97;;;;;;;;;;5067435;28;20037;-78
2022/06/24 03:31:34;;;;;;;3.50;2.83;;;;;;;;;;5063397;28;20158;-77
2022/06/24 03:33:59;;;;;;;2.17;1.93;;;;;;;;;;5069608;28;20020;-77
2022/06/24 03:36:25;;;;;;;4.78;2.17;;;;;;;;;;5065947;28;21187;-78
2022/06/24 03:38:50;;;;;;;1.98;1.70;;;;;;;;;;5057438;28;20037;-77
2022/06/24 03:41:15;;;;;;;3.10;1.90;;;;;;;;;;5058774;28;20032;-77
2022/06/24 03:43:40;;;;;;;4.60;2.10;;;;;;;;;;5059654;28;20024;-78
2022/06/24 03:46:05;;;;;;;2.08;1.98;;;;;;;;;;5062581;28;20192;-77
2022/06/24 03:48:31;;;;;;;4.40;1.83;;;;;;;;;;5058326;28;20039;-76
2022/06/24 03:50:56;;;;;;;2.58;1.80;;;;;;;;;;5066005;28;20059;-77
2022/06/24 03:53:21;;;;;;;2.72;1.90;;;;;;;;;;5061789;28;20036;-77
2022/06/24 03:55:47;;;;;;;3.50;1.85;;;;;;;;;;5067854;28;20428;-78
2022/06/24 03:58:12;;;;;;;3.22;1.90;;;;;;;;;;5057120;28;20170;-77
2022/06/24 04:00:37;;;;;;;2.20;1.97;;;;;;;;;;5061847;28;20035;-78
2022/06/24 04:03:03;;;;;;;3.28;2.22;;;;;;;;;;5064697;28;20471;-77
2022/06/24 04:05:28;;;;;;;3.23;2.00;;;;;;;;;;5066884;28;20028;-77
2022/06/24 04:07:53;;;;;;;6.67;2.17;;;;;;;;;;5062606;28;20360;-77
2022/06/24 04:10:18;;;;;;;2.60;2.30;;;;;;;;;;5067606;28;20021;-77
2022/06/24 04:12:43;;;;;;;3.23;2.30;;;;;;;;;;5061498;28;20128;-77
2022/06/24 04:15:15;;;;;;;3.25;1.92;;;;;;;;;;5064416;28;20266;-77
2022/06/24 04:17:40;;;;;;;3.55;2.50;;;;;;;;;;5060213;28;20024;-76
2022/06/24 04:20:06;;;;;;;3.20;2.50;;;;;;;;;;5056356;28;20031;-77
2022/06/24 04:22:31;;;;;;;4.32;2.47;;;;;;;;;;5063292;28;21801;-78
2022/06/24 04:24:56;;;;;;;6.78;3.03;;;;;;;;;;5064528;28;20043;-76
2022/06/24 04:27:22;;;;;;;5.23;2.77;;;;;;;;;;5061321;28;20028;-77
2022/06/24 04:29:47;;;;;;;4.57;2.80;;;;;;;;;;5057084;28;20098;-77
2022/06/24 04:32:12;;;;;;;4.40;2.53;;;;;;;;;;5059930;28;20020;-77
2022/06/24 04:34:38;;;;;;;3.95;2.88;;;;;;;;;;5066497;28;20069;-77
2022/06/24 04:37:03;;;;;;;3.28;2.88;;;;;;;;;;5063675;28;20020;-77
2022/06/24 04:39:28;;;;;;;4.45;3.13;;;;;;;;;;5057213;28;20021;-77
2022/06/24 04:41:53;;;;;;;4.22;2.72;;;;;;;;;;5062149;28;20020;-77
2022/06/24 04:44:19;;;;;;;3.40;3.10;;;;;;;;;;5060480;28;20426;-78
2022/06/24 04:46:44;;;;;;;4.75;3.20;;;;;;;;;;5062721;28;20431;-78
2022/06/24 04:49:09;;;;;;;4.93;3.47;;;;;;;;;;5062085;28;20446;-77
2022/06/24 04:51:35;;;;;;;4.73;3.10;;;;;;;;;;5057574;28;20029;-78
2022/06/24 04:54:00;;;;;;;5.13;3.27;;;;;;;;;;5057956;28;20027;-78
2022/06/24 04:56:25;;;;;;;3.57;3.27;;;;;;;;;;5059747;28;20028;-78
2022/06/24 04:58:50;;;;;;;7.03;3.53;;;;;;;;;;5060610;28;20378;-77
2022/06/24 05:01:16;;;;;;;5.03;3.57;;;;;;;;;;5061979;28;20034;-77
2022/06/24 05:03:42;;;;;;;5.95;3.85;;;;;;;;;;5062665;28;20391;-77
2022/06/24 05:06:08;;;;;;;5.65;3.95;;;;;;;;;;5061220;28;20044;-76
2022/06/24 05:08:34;;;;;;;3.85;3.55;;;;;;;;;;5057944;28;20052;-75
2022/06/24 05:10:59;;;;;;;5.73;3.93;;;;;;;;;;5065860;28;20680;-76
2022/06/24 05:13:24;;;;;;;4.25;3.58;;;;;;;;;;5064198;28;20025;-76
2022/06/24 05:15:49;;;;;;;6.97;4.10;;;;;;;;;;5059953;28;20035;-76
2022/06/24 05:18:15;;;;;;;11.53;4.53;;;;;;;;;;5058097;28;20089;-76
2022/06/24 05:20:40;;;;;;;5.07;4.37;;;;;;;;;;5061565;28;20028;-76
2022/06/24 05:23:05;;;;;;;7.53;4.87;;;;;;;;;;5061408;28;20070;-76
2022/06/24 05:25:31;;;;;;;6.43;5.00;;;;;;;;;;5061442;28;20269;-76
2022/06/24 05:27:56;;;;;;;6.68;5.32;;;;;;;;;;5063639;28;20028;-77
2022/06/24 05:30:21;;;;;;;8.77;4.90;;;;;;;;;;5060433;28;20036;-75
2022/06/24 05:32:47;;;;;;;6.93;5.22;;;;;;;;;;5067095;28;20024;-75
2022/06/24 05:35:12;;;;;;;11.55;5.45;;;;;;;;;;5063520;28;20124;-75
2022/06/24 05:37:38;;;;;;;8.03;5.60;;;;;;;;;;5057653;28;20028;-75
2022/06/24 05:40:04;;;;;;;10.50;6.32;;;;;;;;;;5061145;28;20280;-75
2022/06/24 05:42:29;;;;;;;7.43;5.95;;;;;;;;;;5064624;28;20032;-75
2022/06/24 05:44:54;;;;;;;9.93;6.47;;;;;;;;;;5061108;28;20087;-77
2022/06/24 05:47:20;;;;;;;9.67;6.07;;;;;;;;;;5055887;28;20758;-74
2022/06/24 05:49:45;;;;;;;8.98;6.88;;;;;;;;;;5063933;28;20284;-75
2022/06/24 05:52:10;;;;;;;12.68;7.63;;;;;;;;;;5064213;28;20128;-75
2022/06/24 05:57:19;;;;;;;13.13;8.98;;;;;;;;;;5061300;28;20123;-77
2022/06/24 05:59:44;;;;;;;11.82;7.88;;;;;;;;;;5051202;28;20024;-77
2022/06/24 06:02:09;;;;;;;14.65;7.82;;;;;;;;;;5059376;28;20135;-77
2022/06/24 06:04:34;;;;;;;17.30;8.48;;;;;;;;;;5051001;28;20039;-77
2022/06/24 06:07:00;;;;;;;13.67;10.00;;;;;;;;;;5056639;28;20025;-76
2022/06/24 06:09:25;;;;;;;16.73;10.80;;;;;;;;;;5055090;28;20566;-76
2022/06/24 06:11:50;;;;;;;17.23;11.27;;;;;;;;;;5059460;28;20048;-77
2022/06/24 06:14:15;;;;;;;21.27;9.98;;;;;;;;;;5060209;28;20110;-76
2022/06/24 06:16:41;;;;;;;11.80;8.00;;;;;;;;;;5056060;28;20020;-75
2022/06/24 06:19:06;;;;;;;18.50;9.30;;;;;;;;;;5056406;28;20273;-74
2022/06/24 06:21:31;;;;;;;14.90;9.07;;;;;;;;;;5056514;28;20074;-76
2022/06/24 06:23:56;;;;;;;15.60;9.57;;;;;;;;;;5056882;28;20315;-76
2022/06/24 06:26:22;;;;;;;15.73;10.00;;;;;;;;;;5057590;28;20448;-75
2022/06/24 06:28:47;;;;;;;18.30;10.83;;;;;;;;;;5060354;28;20528;-78
2022/06/24 06:31:12;;;;;;;16.17;9.35;;;;;;;;;;5061421;28;20032;-75
2022/06/24 06:33:38;;;;;;;15.38;9.40;;;;;;;;;;5055537;28;20028;-77
2022/06/24 06:36:03;;;;;;;15.48;9.18;;;;;;;;;;5057489;28;20021;-75
2022/06/24 06:38:29;;;;;;;17.20;11.18;;;;;;;;;;5053481;28;20461;-74
2022/06/24 06:40:54;;;;;;;18.40;10.95;;;;;;;;;;5059970;28;20064;-72
2022/06/24 06:43:19;;;;;;;19.10;12.30;;;;;;;;;;5057988;28;20032;-74
2022/06/24 06:45:44;;;;;;;19.77;11.83;;;;;;;;;;5059362;28;20025;-75
2022/06/24 06:48:10;;;;;;;19.75;11.77;;;;;;;;;;5057609;28;20281;-74
2022/06/24 06:50:35;;;;;;;23.17;15.10;;;;;;;;;;5065405;28;20435;-73
2022/06/24 06:53:00;;;;;;;23.30;13.47;;;;;;;;;;5057157;28;20041;-72
2022/06/24 06:55:25;;;;;;;23.40;14.15;;;;;;;;;;5055927;28;20116;-73
2022/06/24 06:57:51;;;;;;;21.20;14.50;;;;;;;;;;5049569;28;20047;-73
2022/06/24 07:00:17;;;;;;;22.08;14.18;;;;;;;;;;5060089;28;20319;-75
2022/06/24 07:02:42;;;;;;;25.90;15.88;;;;;;;;;;5055562;28;20493;-76
2022/06/24 07:05:07;;;;;;;29.00;16.53;;;;;;;;;;5057067;28;20036;-75
2022/06/24 07:07:33;;;;;;;28.08;17.15;;;;;;;;;;5051970;28;20111;-75
2022/06/24 07:09:58;;;;;;;28.15;16.35;;;;;;;;;;5054135;28;20082;-77
2022/06/24 07:12:24;;;;;;;28.77;17.70;;;;;;;;;;5061072;28;20056;-77
2022/06/24 07:14:50;;;;;;;27.02;17.48;;;;;;;;;;5060579;28;20031;-75
2022/06/24 07:17:15;;;;;;;27.35;16.38;;;;;;;;;;5059721;28;20082;-75
2022/06/24 07:19:41;;;;;;;24.77;15.52;;;;;;;;;;5059005;28;20139;-75
2022/06/24 07:22:06;;;;;;;25.27;16.43;;;;;;;;;;5056171;28;20028;-76
2022/06/24 07:24:31;;;;;;;28.97;15.03;;;;;;;;;;5058942;28;20459;-75
2022/06/24 07:26:56;;;;;;;21.53;13.30;;;;;;;;;;5056761;28;20269;-76
2022/06/24 07:29:21;;;;;;;21.17;14.63;;;;;;;;;;5059413;28;20111;-76
2022/06/24 07:31:47;;;;;;;26.25;14.63;;;;;;;;;;5054756;28;20442;-76
2022/06/24 07:34:16;;;;;;;21.25;14.73;;;;;;;;;;5056966;28;20020;-75
2022/06/24 07:36:41;;;;;;;24.63;15.65;;;;;;;;;;5059016;28;20524;-75
2022/06/24 07:39:07;;;;;;;21.52;14.45;;;;;;;;;;5056048;28;20032;-75
2022/06/24 07:41:32;;;;;;;24.58;15.98;;;;;;;;;;5057145;28;20040;-77
2022/06/24 07:43:57;;;;;;;25.33;16.67;;;;;;;;;;5060054;28;20115;-75
2022/06/24 07:46:22;;;;;;;24.47;15.50;;;;;;;;;;5060741;28;20029;-71
2022/06/24 07:48:47;;;;;;;25.80;17.38;;;;;;;;;;5056902;28;20034;-76
2022/06/24 07:51:14;;;;;;;27.80;18.58;;;;;;;;;;5059588;28;20025;-77
2022/06/24 07:53:40;;;;;;;25.15;16.90;;;;;;;;;;5057938;28;20052;-77
2022/06/24 07:58:49;;;;;;;22.13;14.80;;;;;;;;;;5053635;28;20074;-77
2022/06/24 08:01:14;;;;;;;23.43;14.93;;;;;;;;;;5055944;28;20025;-76
2022/06/24 08:03:39;;;;;;;21.20;13.98;;;;;;;;;;5054778;28;20557;-75
2022/06/24 08:06:04;;;;;;;22.23;15.13;;;;;;;;;;5058554;28;20103;-77
2022/06/24 08:08:31;;;;;;;25.10;15.77;;;;;;;;;;5057277;28;20367;-75
2022/06/24 08:10:56;;;;;;;24.73;15.07;;;;;;;;;;5059798;28;20013;-76
2022/06/24 08:13:21;;;;;;;21.10;15.30;;;;;;;;;;5061634;28;20024;-76
2022/06/24 08:15:46;;;;;;;29.80;17.90;;;;;;;;;;5055833;28;20330;-76
2022/06/24 08:18:12;;;;;;;24.20;16.38;;;;;;;;;;5057377;28;20438;-77
2022/06/24 08:20:37;;;;;;;21.53;16.10;;;;;;;;;;5051626;28;20109;-76
2022/06/24 08:23:02;;;;;;;22.13;16.03;;;;;;;;;;5055812;28;20021;-75
2022/06/24 08:25:28;;;;;;;24.90;17.02;;;;;;;;;;5053940;28;20090;-74
2022/06/24 08:27:53;;;;;;;24.85;16.15;;;;;;;;;;5057327;28;20032;-76
2022/06/24 08:30:19;;;;;;;23.33;17.10;;;;;;;;;;5056661;28;20080;-77
2022/06/24 08:32:44;;;;;;;24.60;15.68;;;;;;;;;;5057277;28;20266;-75
2022/06/24 08:35:09;;;;;;;22.53;14.57;;;;;;;;;;5055896;28;20090;-76
2022/06/24 08:37:34;;;;;;;20.02;14.48;;;;;;;;;;5054917;28;20766;-76
2022/06/24 08:40:00;;;;;;;19.42;15.18;;;;;;;;;;5055287;28;20036;-77
2022/06/24 08:42:26;;;;;;;21.65;15.10;;;;;;;;;;5056387;28;20111;-77
2022/06/24 08:44:51;;;;;;;24.58;17.48;;;;;;;;;;5057012;28;20020;-75
2022/06/24 08:47:17;;;;;;;29.20;18.77;;;;;;;;;;5058673;28;20047;-76
2022/06/24 08:49:42;;;;;;;28.02;18.10;;;;;;;;;;5049677;28;20074;-77
2022/06/24 08:52:08;;;;;;;26.40;17.08;;;;;;;;;;5060395;28;20021;-75
2022/06/24 08:54:34;;;;;;;25.88;17.25;;;;;;;;;;5054803;28;20066;-75
2022/06/24 08:56:59;;;;;;;24.50;16.08;;;;;;;;;;5048204;28;20117;-75
2022/06/24 08:59:27;;;;;;;22.57;16.17;;;;;;;;;;5052602;28;20035;-74
2022/06/24 09:01:52;;;;;;;23.65;14.93;;;;;;;;;;5055084;28;20278;-73
2022/06/24 09:04:17;;;;;;;18.07;14.17;;;;;;;;;;5058799;28;20533;-78
2022/06/24 09:06:42;;;;;;;21.93;15.57;;;;;;;;;;5053631;28;20285;-76
2022/06/24 09:09:08;;;;;;;19.13;14.97;;;;;;;;;;5059413;28;20040;-74
2022/06/24 09:11:40;;;;;;;22.45;14.20;;;;;;;;;;5058629;28;20344;-75
2022/06/24 09:14:05;;;;;;;20.90;14.13;;;;;;;;;;5054654;28;20025;-75
2022/06/24 09:16:31;;;;;;;23.35;15.68;;;;;;;;;;5049631;28;20356;-74
2022/06/24 09:19:01;;;;;;;26.67;18.05;;;;;;;;;;5058337;28;20574;-74
2022/06/24 09:21:28;;;;;;;26.95;16.33;;;;;;;;;;5053518;28;20044;-75
2022/06/24 09:24:02;;;;;;;28.30;17.88;;;;;;;;;;5061666;28;20542;-72
2022/06/24 09:26:34;;;;;;;37.58;21.85;;;;;;;;;;5052153;28;20753;-75
2022/06/24 09:29:00;;;;;;;34.38;19.98;;;;;;;;;;5056754;28;20513;-74
2022/06/24 09:31:26;;;;;;;36.33;20.50;;;;;;;;;;5053454;28;20524;-77
2022/06/24 09:33:52;;;;;;;40.50;23.00;;;;;;;;;;5049986;28;20016;-76
2022/06/24 09:36:20;;;;;;;39.40;23.25;;;;;;;;;;5051700;28;20093;-77
2022/06/24 09:39:05;;;;;;;38.63;22.73;;;;;;;;;;5059106;28;20060;-78
2022/06/24 09:41:40;;;;;;;38.17;21.88;;;;;;;;;;5053008;28;20033;-79
2022/06/24 09:44:06;;;;;;;41.08;24.88;;;;;;;;;;5060967;28;20024;-76
2022/06/24 09:46:31;;;;;;;35.10;23.70;;;;;;;;;;5061324;28;20418;-78
2022/06/24 09:49:01;;;;;;;38.45;23.40;;;;;;;;;;5059146;28;20029;-77
2022/06/24 09:51:27;;;;;;;41.42;25.95;;;;;;;;;;5058669;28;20024;-77
2022/06/24 09:53:54;;;;;;;41.33;27.70;;;;;;;;;;5059798;28;20103;-76
2022/06/24 09:56:19;;;;;;;41.72;27.40;;;;;;;;;;5061447;28;20036;-76
2022/06/24 10:00:40;;;;;;;34.90;24.63;;;;;;;;;;5058343;28;20024;-76
2022/06/24 10:01:32;;;;;;;38.20;23.58;;;;;;;;;;5059316;28;20040;-78
2022/06/24 10:03:58;;;;;;;32.47;22.52;;;;;;;;;;5061520;28;20047;-76
2022/06/24 10:06:23;;;;;;;34.60;24.23;;;;;;;;;;5065240;28;20032;-77
2022/06/24 10:08:49;;;;;;;31.88;21.77;;;;;;;;;;5072812;28;20028;-76
2022/06/24 10:11:14;;;;;;;31.98;22.90;;;;;;;;;;5062175;28;20029;-75
2022/06/24 10:13:39;;;;;;;34.20;21.95;;;;;;;;;;5068737;28;20024;-76
2022/06/24 10:16:06;;;;;;;27.43;19.70;;;;;;;;;;5058027;28;20104;-77
2022/06/24 10:18:34;;;;;;;20.85;17.25;;;;;;;;;;5059885;28;20037;-76
2022/06/24 10:21:01;;;;;;;21.75;16.48;;;;;;;;;;5059098;28;20391;-77
2022/06/24 10:23:39;;;;;;;18.25;15.43;;;;;;;;;;5058420;28;20112;-75
2022/06/24 10:26:13;;;;;;;20.70;16.90;;;;;;;;;;5061138;28;20028;-77
2022/06/24 10:28:57;;;;;;;21.23;14.98;;;;;;;;;;5055857;28;20033;-75
2022/06/24 10:31:22;;;;;;;;;;;;;;;;;;5070102;28;20017;-77
2022/06/24 10:33:54;;;;;;;13.93;12.40;;;;;;;;;;5057963;28;20412;-75
2022/06/24 10:36:30;;;;;;;13.02;10.27;;;;;;;;;;5056900;28;20081;-76
2022/06/24 10:39:05;;;;;;;12.70;11.13;;;;;;;;;;5058153;28;20028;-76
2022/06/24 10:41:37;;;;;;;14.68;11.70;;;;;;;;;;5063579;28;20028;-78
2022/06/24 10:44:21;;;;;;;13.32;11.45;;;;;;;;;;5061752;28;20020;-74
2022/06/24 10:46:46;;;;;;;15.57;12.73;;;;;;;;;;5063955;28;20050;-75
2022/06/24 10:49:11;;;;;;;13.97;10.97;;;;;;;;;;5059605;28;20534;-76
2022/06/24 10:51:36;;;;;;;11.33;8.67;;;;;;;;;;5055515;28;20070;-75
2022/06/24 10:54:01;;;;;;;14.57;11.13;;;;;;;;;;5058020;28;20070;-74
2022/06/24 10:56:38;;;;;;;12.43;9.93;;;;;;;;;;5068282;28;20020;-74
2022/06/24 10:59:03;;;;;;;14.90;9.18;;;;;;;;;;5063656;28;20032;-74
2022/06/24 11:01:28;;;;;;;10.37;8.63;;;;;;;;;;5053169;28;20073;-74
2022/06/24 11:03:54;;;;;;;7.83;7.00;;;;;;;;;;5059502;28;20285;-75
2022/06/24 11:06:20;;;;;;;10.20;8.00;;;;;;;;;;5056715;28;20396;-74
2022/06/24 11:08:45;;;;;;;6.68;5.80;;;;;;;;;;5057073;28;20494;-77
2022/06/24 11:11:24;;;;;;;7.53;6.83;;;;;;;;;;5057950;28;20376;-75
2022/06/24 11:13:50;;;;;;;8.80;6.40;;;;;;;;;;5058989;28;20716;-76
2022/06/24 11:16:15;;;;;;;8.13;6.40;;;;;;;;;;5058637;28;20493;-74
2022/06/24 11:18:40;;;;;;;7.40;6.67;;;;;;;;;;5058415;28;20021;-74
2022/06/24 11:21:07;;;;;;;7.55;6.85;;;;;;;;;;5060368;28;20394;-73
2022/06/24 11:23:34;;;;;;;9.13;6.38;;;;;;;;;;5062143;28;20467;-75
2022/06/24 11:26:00;;;;;;;7.95;7.15;;;;;;;;;;5060157;28;20055;-76
2022/06/24 11:28:32;;;;;;;10.88;8.77;;;;;;;;;;5063682;28;20017;-75
2022/06/24 11:31:15;;;;;;;11.70;9.38;;;;;;;;;;5062677;28;20414;-75
2022/06/24 11:33:40;;;;;;;10.32;8.90;;;;;;;;;;5056668;28;20560;-76
2022/06/24 11:36:07;;;;;;;12.80;9.77;;;;;;;;;;5055531;28;20128;-76
2022/06/24 11:38:36;;;;;;;13.18;10.68;;;;;;;;;;5058777;28;20494;-78
2022/06/24 11:41:01;;;;;;;14.57;10.30;;;;;;;;;;5055173;28;20605;-75
2022/06/24 11:43:27;;;;;;;14.50;10.90;;;;;;;;;;5061586;28;20517;-75
2022/06/24 11:45:57;;;;;;;14.85;11.65;;;;;;;;;;5061821;28;20335;-75
2022/06/24 11:48:23;;;;;;;15.50;11.57;;;;;;;;;;5057422;28;20028;-75
2022/06/24 11:50:49;;;;;;;16.23;12.90;;;;;;;;;;5056861;28;20020;-76
2022/06/24 11:53:15;;;;;;;15.70;12.18;;;;;;;;;;5060052;28;20033;-77
2022/06/24 11:55:41;;;;;;;16.42;12.57;;;;;;;;;;5058105;28;20095;-76
2022/06/24 11:58:06;;;;;;;19.03;13.20;;;;;;;;;;5054586;28;20061;-74
2022/06/24 12:00:33;;;;;;;13.73;12.10;;;;;;;;;;5057324;28;20855;-77
2022/06/24 12:02:59;;;;;;;10.77;9.68;;;;;;;;;;5059704;28;20063;-78
2022/06/24 12:05:28;;;;;;;9.52;8.52;;;;;;;;;;5059707;28;20123;-78
2022/06/24 12:07:55;;;;;;;8.15;7.13;;;;;;;;;;5054758;28;20156;-79
2022/06/24 12:10:20;;;;;;;7.97;6.80;;;;;;;;;;5058381;28;20387;-76
2022/06/24 12:12:55;;;;;;;5.00;4.60;;;;;;;;;;5058312;28;20020;-77
2022/06/24 12:15:21;;;;;;;5.97;5.38;;;;;;;;;;5059331;28;20273;-73
2022/06/24 12:17:50;;;;;;;5.90;5.40;;;;;;;;;;5064799;28;20315;-74
2022/06/24 12:20:20;;;;;;;9.23;7.10;;;;;;;;;;5059177;28;20033;-73
2022/06/24 12:22:45;;;;;;;8.40;7.70;;;;;;;;;;5059347;28;20055;-71
2022/06/24 12:25:11;;;;;;;10.47;7.70;;;;;;;;;;5060347;28;20075;-78
2022/06/24 12:27:37;;;;;;;9.25;8.18;;;;;;;;;;5053878;28;20678;-74
2022/06/24 12:30:04;;;;;;;9.20;8.30;;;;;;;;;;5056387;28;20107;-71
2022/06/24 12:32:46;;;;;;;9.88;7.82;;;;;;;;;;5055032;28;20101;-72
2022/06/24 12:35:12;;;;;;;9.25;8.23;;;;;;;;;;5059742;28;20467;-73
2022/06/24 12:37:37;;;;;;;6.88;6.28;;;;;;;;;;5059813;28;20020;-74
2022/06/24 12:40:03;;;;;;;5.80;5.30;;;;;;;;;;5058709;28;20566;-71
2022/06/24 12:42:28;;;;;;;7.70;5.85;;;;;;;;;;5063769;28;20025;-72
2022/06/24 12:44:58;;;;;;;4.78;3.30;;;;;;;;;;5059410;28;20432;-74
2022/06/24 12:53:00;;;;;;;2.00;1.90;;;;;;;;;;5057347;28;20035;-71
2022/06/24 12:55:25;;;;;;;3.75;2.33;;;;;;;;;;5064917;28;20474;-73
2022/06/24 12:57:50;;;;;;;4.50;1.73;;;;;;;;;;5051478;28;20143;-71
2022/06/24 13:00:16;;;;;;;1.60;1.50;;;;;;;;;;5058079;28;20036;-73
2022/06/24 13:02:45;;;;;;;1.75;1.20;;;;;;;;;;5055122;28;20280;-72
2022/06/24 13:05:11;;;;;;;1.60;1.50;;;;;;;;;;5057465;28;20025;-75
2022/06/24 13:07:37;;;;;;;1.48;1.33;;;;;;;;;;5056424;28;20025;-75
2022/06/24 13:10:02;;;;;;;2.80;1.30;;;;;;;;;;5058005;28;20612;-78
2022/06/24 13:12:28;;;;;;;1.10;1.00;;;;;;;;;;5055870;28;20131;-73
2022/06/24 13:14:53;;;;;;;1.07;1.07;;;;;;;;;;5055793;28;20025;-77
2022/06/24 13:17:18;;;;;;;2.72;1.02;;;;;;;;;;5059751;28;20557;-72
2022/06/24 13:19:43;;;;;;;1.00;0.97;;;;;;;;;;5057473;28;20028;-76
2022/06/24 13:22:09;;;;;;;1.30;0.97;;;;;;;;;;5057491;28;20069;-76
2022/06/24 13:24:34;;;;;;;1.30;1.20;;;;;;;;;;5059844;28;20025;-79
2022/06/24 13:27:02;;;;;;;1.17;1.07;;;;;;;;;;5058185;28;20527;-76
2022/06/24 13:29:27;;;;;;;1.20;1.10;;;;;;;;;;5055998;28;20063;-75
2022/06/24 13:31:52;;;;;;;3.38;1.50;;;;;;;;;;5056348;28;20397;-76
2022/06/24 13:34:17;;;;;;;1.93;1.20;;;;;;;;;;5056154;28;20021;-78
2022/06/24 13:36:42;;;;;;;2.03;1.60;;;;;;;;;;5054905;28;20301;-75
2022/06/24 13:39:08;;;;;;;4.33;1.70;;;;;;;;;;5056431;28;20028;-74
2022/06/24 13:41:33;;;;;;;1.40;1.30;;;;;;;;;;5056233;28;20029;-81
2022/06/24 13:43:58;;;;;;;2.10;1.50;;;;;;;;;;5062044;28;20486;-73
2022/06/24 13:46:23;;;;;;;1.63;1.53;;;;;;;;;;5059975;28;20055;-74
2022/06/24 13:48:48;;;;;;;2.77;1.80;;;;;;;;;;5054089;28;20031;-77
2022/06/24 13:51:14;;;;;;;1.70;1.60;;;;;;;;;;5054465;28;20269;-75
2022/06/24 13:53:39;;;;;;;1.80;1.70;;;;;;;;;;5061188;28;20032;-87
2022/06/24 13:56:04;;;;;;;1.80;1.65;;;;;;;;;;5057776;28;20008;-76
2022/06/24 13:58:29;;;;;;;1.95;1.65;;;;;;;;;;5053096;28;20085;-74
2022/06/24 14:00:56;;;;;;;4.63;1.80;;;;;;;;;;5055871;28;20024;-74
2022/06/24 14:03:23;;;;;;;3.47;2.35;;;;;;;;;;5054566;28;20284;-82
2022/06/24 14:05:48;;;;;;;2.60;1.95;;;;;;;;;;5056179;28;20024;-78
2022/06/24 14:08:14;;;;;;;2.97;1.60;;;;;;;;;;5052189;28;20040;-76
2022/06/24 14:10:39;;;;;;;2.27;2.13;;;;;;;;;;5059095;28;20021;-76
2022/06/24 14:13:04;;;;;;;4.07;2.30;;;;;;;;;;5055674;28;20253;-78
2022/06/24 14:15:30;;;;;;;2.40;2.20;;;;;;;;;;5050296;28;20035;-75
2022/06/24 14:17:55;;;;;;;6.90;2.53;;;;;;;;;;5057310;28;20073;-82
2022/06/24 14:20:20;;;;;;;2.90;2.30;;;;;;;;;;5052052;28;20036;-74
2022/06/24 14:25:31;;;;;;;3.15;2.47;;;;;;;;;;5065291;28;20081;-85
2022/06/24 14:27:56;;;;;;;3.78;2.60;;;;;;;;;;5051674;28;20032;-82
2022/06/24 14:30:21;;;;;;;2.70;2.50;;;;;;;;;;5056120;28;20024;-76
2022/06/24 14:32:46;;;;;;;4.17;2.70;;;;;;;;;;5064917;28;20565;-76
2022/06/24 14:35:11;;;;;;;3.13;2.83;;;;;;;;;;5061351;28;20013;-73
2022/06/24 14:40:22;;;;;;;3.35;3.15;;;;;;;;;;5071001;28;20066;-77
2022/06/24 14:42:48;;;;;;;3.08;2.88;;;;;;;;;;5067183;28;20012;-74
2022/06/24 14:45:13;;;;;;;3.65;2.90;;;;;;;;;;5063275;28;20028;-76
2022/06/24 14:47:39;;;;;;;2.90;2.70;;;;;;;;;;5057923;28;20063;-76